Time;durP1;ratioP1;P1;durP2;ratioP2;P2;SDS_P1;SDS_P2;PMS_P1;PMS_P2;Temp;Humidity;BMP_temperature;BMP_pressure;BME280_temperature;BME280_humidity;BME280_pressure;Samples;Min_cycle;Max_cycle;Signal;HPM_P1;HPM_P2
2021/10/13 00:01:08;;;;;;;9.82;2.90;;;;;19.30;100305.00;;;;4854093;29;20573;-76
2021/10/13 00:03:38;;;;;;;8.40;2.80;;;;;19.20;100285.00;;;;4853548;29;20410;-76
2021/10/13 00:06:07;;;;;;;7.25;2.75;;;;;19.10;100300.00;;;;4853633;29;20513;-77
2021/10/13 00:08:37;;;;;;;6.35;2.88;;;;;19.10;100290.00;;;;4853319;29;20049;-75
2021/10/13 00:11:06;;;;;;;5.72;2.55;;;;;19.10;100293.00;;;;4853743;29;20065;-77
2021/10/13 00:13:36;;;;;;;5.90;2.40;;;;;19.00;100302.00;;;;4854258;29;20553;-77
2021/10/13 00:16:05;;;;;;;5.85;2.97;;;;;19.00;100271.00;;;;4851958;29;20069;-76
2021/10/13 00:18:35;;;;;;;8.23;2.67;;;;;19.00;100277.00;;;;4853894;29;20510;-76
2021/10/13 00:26:56;;;;;;;7.03;3.00;;;;;18.90;100278.00;;;;5761699;23;20056;-81
2021/10/13 00:29:26;;;;;;;5.80;2.90;;;;;18.80;100283.00;;;;4843200;29;20241;-80
2021/10/13 00:31:58;;;;;;;7.22;2.55;;;;;18.80;100280.00;;;;4851659;29;20069;-80
2021/10/13 00:34:27;;;;;;;8.95;3.03;;;;;18.80;100271.00;;;;4863944;29;20503;-81
2021/10/13 00:36:57;;;;;;;6.07;2.30;;;;;18.80;100286.00;;;;4869649;29;20061;-81
2021/10/13 00:39:26;;;;;;;5.32;2.53;;;;;18.80;100298.00;;;;4862937;29;20061;-82
2021/10/13 00:41:56;;;;;;;5.43;2.83;;;;;18.80;100284.00;;;;4865989;29;20045;-82
2021/10/13 00:44:25;;;;;;;5.80;2.55;;;;;18.70;100281.00;;;;4863076;29;20048;-82
2021/10/13 00:46:54;;;;;;;6.30;2.63;;;;;18.70;100280.00;;;;4868578;29;20044;-81
2021/10/13 00:49:25;;;;;;;9.02;2.60;;;;;19.00;100284.00;;;;4866411;29;20045;-82
2021/10/13 00:51:55;;;;;;;2.85;2.08;;;;;18.90;100276.00;;;;4866968;29;20473;-79
2021/10/13 00:54:24;;;;;;;5.30;2.47;;;;;18.90;100299.00;;;;4866247;29;20050;-80
2021/10/13 00:56:54;;;;;;;6.57;2.35;;;;;18.70;100266.00;;;;4866766;29;20469;-81
2021/10/13 00:59:23;;;;;;;8.60;2.70;;;;;18.60;100288.00;;;;4879209;29;20064;-80
2021/10/13 01:02:03;;;;;;;4.88;2.38;;;;;18.60;100285.00;;;;4867228;29;20520;-80
2021/10/13 01:04:44;;;;;;;7.93;3.00;;;;;18.50;100281.00;;;;4865524;29;20049;-80
2021/10/13 01:07:25;;;;;;;14.20;13.05;;;;;18.50;100287.00;;;;4865853;29;20520;-81
2021/10/13 01:10:06;;;;;;;4.47;2.63;;;;;18.60;100302.00;;;;4866477;29;20041;-81
2021/10/13 01:13:16;;;;;;;4.50;2.70;;;;;18.60;100309.00;;;;4864057;29;20055;-80
2021/10/13 01:16:42;;;;;;;6.43;2.70;;;;;18.50;100292.00;;;;4865412;29;20509;-81
2021/10/13 01:19:12;;;;;;;5.30;3.33;;;;;18.50;100284.00;;;;4853893;29;20177;-80
2021/10/13 01:22:07;;;;;;;6.50;2.58;;;;;18.50;100284.00;;;;4865301;29;20404;-80
2021/10/13 01:25:03;;;;;;;6.10;2.75;;;;;18.50;100271.00;;;;4855253;29;20476;-80
2021/10/13 01:28:17;;;;;;;6.15;3.10;;;;;18.50;100273.00;;;;4867310;29;20082;-79
2021/10/13 01:31:03;;;;;;;7.40;2.90;;;;;18.40;100263.00;;;;4858617;29;20053;-81
2021/10/13 01:33:37;;;;;;;8.13;3.00;;;;;18.40;100259.00;;;;4865603;29;20648;-81
2021/10/13 01:36:11;;;;;;;5.25;2.90;;;;;18.30;100262.00;;;;4866206;29;20052;-81
2021/10/13 01:38:50;;;;;;;5.80;3.13;;;;;18.40;100234.00;;;;4863781;29;20117;-81
2021/10/13 01:41:25;;;;;;;7.95;2.85;;;;;18.30;100245.00;;;;4864822;29;20037;-82
2021/10/13 01:43:57;;;;;;;8.35;2.95;;;;;18.20;100240.00;;;;4871656;29;20092;-83
2021/10/13 01:46:28;;;;;;;7.32;3.17;;;;;18.20;100228.00;;;;4874776;29;20063;-81
2021/10/13 01:49:01;;;;;;;11.15;3.33;;;;;18.10;100246.00;;;;4873892;29;20049;-81
2021/10/13 01:51:32;;;;;;;7.22;3.17;;;;;18.10;100258.00;;;;4874808;29;20045;-81
2021/10/13 01:54:04;;;;;;;5.50;2.83;;;;;18.10;100240.00;;;;4873521;29;20548;-83
2021/10/13 01:56:34;;;;;;;;;;;;;18.10;100237.00;;;;4873639;29;20497;-81
2021/10/13 01:59:07;;;;;;;7.90;3.33;;;;;18.20;100228.00;;;;4874857;29;19948;-82
2021/10/13 02:01:38;;;;;;;6.75;3.40;;;;;18.20;100239.00;;;;4874039;29;20055;-79
2021/10/13 02:04:10;;;;;;;5.45;2.95;;;;;18.10;100235.00;;;;4874449;29;20513;-81
2021/10/13 02:06:43;;;;;;;7.20;2.95;;;;;18.10;100216.00;;;;4874262;29;20045;-81
2021/10/13 02:09:16;;;;;;;7.95;2.80;;;;;18.10;100221.00;;;;4872501;29;20520;-82
2021/10/13 02:11:46;;;;;;;4.28;3.10;;;;;18.00;100217.00;;;;4874804;29;20143;-81
2021/10/13 02:14:18;;;;;;;7.50;3.53;;;;;18.00;100212.00;;;;4873756;29;20361;-82
2021/10/13 02:16:53;;;;;;;6.30;3.20;;;;;18.00;100213.00;;;;4873869;29;20887;-82
2021/10/13 02:19:27;;;;;;;8.63;3.50;;;;;18.00;100203.00;;;;4873913;29;20536;-81
2021/10/13 02:21:59;;;;;;;9.05;3.53;;;;;18.00;100209.00;;;;4874104;29;20056;-81
2021/10/13 02:24:55;;;;;;;8.48;3.58;;;;;17.90;100214.00;;;;4856650;29;20056;-81
2021/10/13 02:27:56;;;;;;;8.85;3.60;;;;;17.90;100206.00;;;;4854174;29;20077;-80
2021/10/13 02:30:26;;;;;;;3.83;3.17;;;;;17.80;100200.00;;;;4855523;29;20114;-81
2021/10/13 02:32:56;;;;;;;10.52;3.53;;;;;17.70;100186.00;;;;4854837;29;20305;-83
2021/10/13 02:35:25;;;;;;;6.95;3.55;;;;;17.70;100203.00;;;;4856493;29;20053;-82
2021/10/13 02:37:55;;;;;;;4.93;3.83;;;;;17.70;100181.00;;;;4855160;29;20057;-81
2021/10/13 02:40:24;;;;;;;7.63;3.72;;;;;17.70;100198.00;;;;4856186;29;20045;-81
2021/10/13 02:42:54;;;;;;;5.55;3.42;;;;;17.60;100186.00;;;;4876250;29;20053;-82
2021/10/13 02:45:23;;;;;;;5.47;3.35;;;;;17.60;100195.00;;;;4861876;29;20421;-82
2021/10/13 02:48:01;;;;;;;7.03;3.88;;;;;17.50;100204.00;;;;4854303;29;20057;-81
2021/10/13 02:50:49;;;;;;;7.07;4.03;;;;;17.50;100204.00;;;;4854658;29;20049;-82
2021/10/13 02:53:40;;;;;;;9.07;3.92;;;;;17.50;100203.00;;;;4854998;29;20128;-82
2021/10/13 02:56:32;;;;;;;5.82;3.95;;;;;17.50;100191.00;;;;4855934;29;20045;-83
2021/10/13 02:59:15;;;;;;;5.32;4.28;;;;;17.40;100195.00;;;;4855107;29;20045;-84
2021/10/13 03:01:46;;;;;;;7.32;4.47;;;;;17.40;100190.00;;;;4857546;29;20113;-83
2021/10/13 03:27:01;;;;;;;9.20;5.20;;;;;17.20;100199.00;;;;5144593;27;20329;-77
2021/10/13 03:29:31;;;;;;;5.72;4.63;;;;;17.20;100192.00;;;;5123862;27;20443;-77
2021/10/13 03:32:01;;;;;;;8.25;5.03;;;;;17.20;100177.00;;;;5123185;28;20140;-77
2021/10/13 03:34:30;;;;;;;16.33;5.13;;;;;17.20;100173.00;;;;5122714;27;20398;-77
2021/10/13 03:37:00;;;;;;;8.73;5.03;;;;;17.20;100170.00;;;;5124147;27;20051;-77
2021/10/13 03:39:29;;;;;;;8.30;5.40;;;;;17.20;100167.00;;;;5123781;27;20160;-77
2021/10/13 03:42:01;;;;;;;8.40;5.90;;;;;17.20;100158.00;;;;5124034;27;20055;-77
2021/10/13 03:44:31;;;;;;;8.25;5.38;;;;;17.20;100169.00;;;;5123855;27;20425;-78
2021/10/13 03:47:01;;;;;;;11.82;5.85;;;;;17.10;100163.00;;;;5123055;27;20043;-77
2021/10/13 03:49:31;;;;;;;13.00;5.50;;;;;17.00;100181.00;;;;5123720;27;20052;-77
2021/10/13 03:52:00;;;;;;;7.68;6.15;;;;;17.10;100168.00;;;;5123661;27;20043;-78
2021/10/13 03:54:30;;;;;;;7.00;5.57;;;;;17.10;100166.00;;;;5123436;27;20100;-78
2021/10/13 03:56:59;;;;;;;8.27;5.85;;;;;17.10;100160.00;;;;5123146;27;20050;-78
2021/10/13 03:59:29;;;;;;;9.60;6.18;;;;;17.10;100161.00;;;;5123274;27;20048;-77
2021/10/13 04:01:58;;;;;;;10.50;6.07;;;;;17.00;100147.00;;;;5122729;27;20596;-78
2021/10/13 04:04:28;;;;;;;10.55;6.60;;;;;17.10;100157.00;;;;5123613;27;20043;-78
2021/10/13 04:06:57;;;;;;;10.00;6.88;;;;;17.10;100142.00;;;;5123745;27;20047;-78
2021/10/13 04:09:27;;;;;;;12.70;6.22;;;;;17.10;100142.00;;;;5123114;28;20551;-78
2021/10/13 04:11:57;;;;;;;8.10;6.72;;;;;17.00;100145.00;;;;5106398;27;20043;-77
2021/10/13 04:14:26;;;;;;;11.38;7.38;;;;;17.00;100156.00;;;;5102614;28;20044;-78
2021/10/13 04:16:55;;;;;;;7.35;6.57;;;;;17.00;100147.00;;;;5082083;28;20495;-78
2021/10/13 04:19:25;;;;;;;8.27;7.13;;;;;17.00;100133.00;;;;5082526;28;20052;-78
2021/10/13 04:21:54;;;;;;;10.05;6.82;;;;;16.90;100139.00;;;;5082839;28;20040;-78
2021/10/13 04:24:23;;;;;;;11.55;7.43;;;;;16.90;100145.00;;;;5081382;28;20040;-78
2021/10/13 04:26:53;;;;;;;10.32;6.78;;;;;16.90;100140.00;;;;5094267;28;20052;-78
2021/10/13 04:29:22;;;;;;;10.65;6.60;;;;;16.90;100136.00;;;;5089272;28;20093;-77
2021/10/13 04:31:52;;;;;;;7.85;7.10;;;;;16.90;100125.00;;;;5089121;28;20067;-78
2021/10/13 04:34:21;;;;;;;6.90;6.30;;;;;16.90;100134.00;;;;5089140;28;20038;-78
2021/10/13 04:36:51;;;;;;;9.32;6.90;;;;;16.90;100131.00;;;;5088336;28;20101;-77
2021/10/13 04:39:20;;;;;;;9.73;7.07;;;;;16.90;100137.00;;;;5089044;28;20540;-78
2021/10/13 04:41:50;;;;;;;12.88;8.13;;;;;16.90;100122.00;;;;5088924;28;20063;-78
2021/10/13 04:44:19;;;;;;;12.52;8.07;;;;;16.90;100114.00;;;;5088703;28;20044;-77
2021/10/13 04:46:49;;;;;;;14.90;7.88;;;;;16.90;100122.00;;;;5088076;28;20105;-77
2021/10/13 04:49:18;;;;;;;11.05;8.05;;;;;16.80;100119.00;;;;5088153;28;20455;-78
2021/10/13 04:51:47;;;;;;;13.25;8.73;;;;;16.80;100128.00;;;;5088366;28;20052;-77
2021/10/13 04:54:19;;;;;;;12.60;8.30;;;;;16.70;100131.00;;;;5088411;28;20119;-77
2021/10/13 04:56:48;;;;;;;10.77;7.70;;;;;16.70;100136.00;;;;5088720;28;20314;-78
2021/10/13 04:59:18;;;;;;;9.70;8.25;;;;;16.70;100107.00;;;;5088420;28;20298;-77
2021/10/13 05:01:47;;;;;;;10.95;8.07;;;;;16.70;100118.00;;;;5087555;28;20426;-77
2021/10/13 05:04:17;;;;;;;11.07;9.20;;;;;16.70;100103.00;;;;5088556;28;20461;-77
2021/10/13 05:06:47;;;;;;;10.77;7.85;;;;;16.60;100096.00;;;;5087982;28;20040;-78
2021/10/13 05:09:16;;;;;;;11.32;8.48;;;;;16.60;100089.00;;;;5089275;28;20048;-77
2021/10/13 05:11:46;;;;;;;12.13;8.35;;;;;16.60;100110.00;;;;5103106;28;20040;-78
2021/10/13 05:14:15;;;;;;;10.43;7.93;;;;;16.60;100104.00;;;;5089883;28;20067;-77
2021/10/13 05:16:45;;;;;;;13.23;7.55;;;;;16.50;100084.00;;;;5107969;28;20055;-78
2021/10/13 05:19:14;;;;;;;12.57;7.82;;;;;16.50;100077.00;;;;5109416;28;20047;-78
2021/10/13 05:21:43;;;;;;;10.38;7.53;;;;;16.50;100083.00;;;;5090498;28;20052;-78
2021/10/13 05:24:13;;;;;;;9.77;7.70;;;;;16.50;100096.00;;;;5090676;28;20495;-78
2021/10/13 05:26:42;;;;;;;10.68;8.00;;;;;16.40;100092.00;;;;5111483;28;20170;-78
2021/10/13 05:29:12;;;;;;;13.63;7.60;;;;;16.30;100068.00;;;;5110740;28;20047;-77
2021/10/13 05:31:41;;;;;;;15.52;8.10;;;;;16.40;100080.00;;;;5107956;28;20055;-78
2021/10/13 05:34:10;;;;;;;13.98;7.95;;;;;16.30;100075.00;;;;5107806;28;20079;-79
2021/10/13 05:36:39;;;;;;;12.95;7.80;;;;;16.30;100069.00;;;;5108283;28;20044;-78
2021/10/13 05:39:09;;;;;;;12.73;8.80;;;;;16.30;100064.00;;;;5107889;28;20398;-78
2021/10/13 05:41:39;;;;;;;10.70;8.23;;;;;16.30;100080.00;;;;5107897;28;20047;-77
2021/10/13 05:44:08;;;;;;;11.93;8.77;;;;;16.20;100051.00;;;;5107424;28;20501;-78
2021/10/13 05:46:37;;;;;;;12.77;8.95;;;;;16.20;100063.00;;;;5108393;28;20043;-78
2021/10/13 05:49:07;;;;;;;10.93;7.95;;;;;16.20;100078.00;;;;5107680;28;20417;-78
2021/10/13 05:51:36;;;;;;;17.10;8.80;;;;;16.20;100057.00;;;;5108046;28;20077;-78
2021/10/13 05:54:06;;;;;;;13.55;8.45;;;;;16.10;100082.00;;;;5089425;28;20046;-78
2021/10/13 05:56:36;;;;;;;13.23;8.95;;;;;16.10;100060.00;;;;5107492;28;20138;-78
2021/10/13 05:59:06;;;;;;;13.47;9.13;;;;;16.20;100049.00;;;;5107523;28;20043;-77
2021/10/13 06:01:35;;;;;;;13.48;9.07;;;;;16.30;100062.00;;;;5108130;28;20043;-78
2021/10/13 06:04:05;;;;;;;11.77;8.65;;;;;16.20;100058.00;;;;5107590;28;20581;-77
2021/10/13 06:06:35;;;;;;;10.32;8.55;;;;;16.10;100054.00;;;;5107337;28;20055;-77
2021/10/13 06:09:05;;;;;;;9.52;8.02;;;;;16.10;100047.00;;;;5107442;28;20070;-78
2021/10/13 06:11:35;;;;;;;16.02;9.07;;;;;16.20;100050.00;;;;5107129;28;20047;-78
2021/10/13 06:14:04;;;;;;;12.75;8.73;;;;;16.20;100054.00;;;;5107468;28;20058;-78
2021/10/13 06:16:34;;;;;;;13.35;9.25;;;;;16.10;100043.00;;;;5106665;28;20047;-78
2021/10/13 06:19:03;;;;;;;10.10;8.68;;;;;16.10;100054.00;;;;5106657;28;20063;-77
2021/10/13 06:21:33;;;;;;;16.20;8.68;;;;;16.00;100058.00;;;;5106847;28;20043;-78
2021/10/13 06:24:03;;;;;;;12.25;9.10;;;;;16.00;100058.00;;;;5089665;28;20050;-78
2021/10/13 06:26:32;;;;;;;9.90;8.50;;;;;16.00;100054.00;;;;5088833;28;20421;-78
2021/10/13 06:29:01;;;;;;;15.02;9.02;;;;;16.00;100067.00;;;;5106902;28;20039;-78
2021/10/13 06:31:31;;;;;;;16.10;9.15;;;;;15.90;100061.00;;;;5106601;28;20051;-78
2021/10/13 06:34:00;;;;;;;11.63;8.98;;;;;15.90;100065.00;;;;5108060;28;20051;-78
2021/10/13 06:36:30;;;;;;;14.05;9.25;;;;;16.00;100050.00;;;;5089007;28;20444;-78
2021/10/13 06:38:59;;;;;;;12.02;10.25;;;;;15.90;100055.00;;;;5088729;28;20052;-78
2021/10/13 06:41:29;;;;;;;11.23;9.50;;;;;15.90;100068.00;;;;5107148;28;20089;-77
2021/10/13 06:43:58;;;;;;;13.77;9.20;;;;;15.90;100063.00;;;;5106963;28;20100;-78
2021/10/13 06:46:28;;;;;;;10.63;9.52;;;;;15.80;100051.00;;;;5088951;28;20054;-78
2021/10/13 06:48:57;;;;;;;12.38;9.70;;;;;15.90;100057.00;;;;5107000;28;20505;-78
2021/10/13 06:51:27;;;;;;;13.20;9.75;;;;;15.80;100082.00;;;;5106566;28;20039;-78
2021/10/13 06:53:56;;;;;;;11.27;9.25;;;;;15.80;100060.00;;;;5106642;28;20043;-78
2021/10/13 06:56:26;;;;;;;13.43;9.35;;;;;15.80;100059.00;;;;5106206;28;20124;-78
2021/10/13 06:58:56;;;;;;;11.70;9.15;;;;;15.80;100081.00;;;;5106718;28;20047;-79
2021/10/13 07:01:25;;;;;;;15.85;10.18;;;;;15.80;100084.00;;;;5106537;28;20088;-78
2021/10/13 07:03:55;;;;;;;9.68;8.38;;;;;15.80;100082.00;;;;5106621;28;20072;-78
2021/10/13 07:06:28;;;;;;;10.82;9.13;;;;;15.80;100083.00;;;;5106542;28;20084;-78
2021/10/13 07:08:57;;;;;;;13.25;10.32;;;;;15.80;100083.00;;;;5106580;28;20061;-78
2021/10/13 07:11:27;;;;;;;13.75;9.45;;;;;15.80;100065.00;;;;5106846;28;20040;-77
2021/10/13 07:13:56;;;;;;;12.13;8.38;;;;;15.80;100064.00;;;;5106636;28;20509;-77
2021/10/13 07:16:26;;;;;;;10.50;9.45;;;;;15.70;100076.00;;;;5106228;28;20142;-77
2021/10/13 07:18:55;;;;;;;14.25;9.30;;;;;15.70;100044.00;;;;5106017;28;20075;-77
2021/10/13 07:21:25;;;;;;;16.23;10.13;;;;;15.70;100043.00;;;;5106185;28;20047;-78
2021/10/13 07:23:55;;;;;;;17.98;10.07;;;;;15.70;100062.00;;;;5106128;28;20155;-77
2021/10/13 07:26:24;;;;;;;11.52;9.35;;;;;15.70;100061.00;;;;5106513;28;20061;-77
2021/10/13 07:28:53;;;;;;;13.65;9.57;;;;;15.70;100067.00;;;;5106973;28;20105;-77
2021/10/13 07:31:23;;;;;;;15.10;10.63;;;;;15.70;100062.00;;;;5106563;28;20603;-77
2021/10/13 07:33:52;;;;;;;13.20;9.70;;;;;15.60;100064.00;;;;5106976;28;20051;-77
2021/10/13 07:36:22;;;;;;;12.82;9.68;;;;;15.50;100085.00;;;;5087973;28;20048;-77
2021/10/13 07:38:52;;;;;;;13.18;9.63;;;;;15.50;100068.00;;;;5106471;28;20043;-77
2021/10/13 07:41:22;;;;;;;13.18;9.23;;;;;15.50;100064.00;;;;5088323;28;20108;-77
2021/10/13 07:43:52;;;;;;;;;;;;;15.50;100075.00;;;;5106665;28;20055;-77
2021/10/13 07:46:23;;;;;;;12.73;9.77;;;;;15.50;100078.00;;;;5106001;28;19941;-78
2021/10/13 07:48:53;;;;;;;10.63;9.35;;;;;15.50;100076.00;;;;5106033;28;20399;-78
2021/10/13 07:51:22;;;;;;;17.42;9.60;;;;;15.40;100088.00;;;;5087510;28;20060;-79
2021/10/13 07:53:51;;;;;;;14.93;9.75;;;;;15.50;100062.00;;;;5088070;28;20096;-78
2021/10/13 07:56:21;;;;;;;14.00;10.60;;;;;15.50;100080.00;;;;5107087;28;20059;-78
2021/10/13 07:58:50;;;;;;;13.35;10.70;;;;;15.50;100087.00;;;;5105800;28;20036;-78
2021/10/13 08:01:20;;;;;;;13.10;10.27;;;;;15.40;100092.00;;;;5106582;28;20043;-78
2021/10/13 08:03:50;;;;;;;16.85;10.88;;;;;15.40;100105.00;;;;5109858;28;20051;-78
2021/10/13 08:06:19;;;;;;;20.75;10.65;;;;;15.40;100088.00;;;;5109857;28;20040;-78
2021/10/13 08:08:49;;;;;;;14.68;9.63;;;;;15.40;100090.00;;;;5109926;28;20506;-78
2021/10/13 08:11:18;;;;;;;15.80;10.55;;;;;15.40;100111.00;;;;5111170;28;20054;-77
2021/10/13 08:13:47;;;;;;;12.95;8.55;;;;;15.50;100117.00;;;;5120958;28;20043;-78
2021/10/13 08:16:17;;;;;;;18.42;11.25;;;;;15.50;100105.00;;;;5112438;28;20048;-78
2021/10/13 08:18:47;;;;;;;12.63;8.50;;;;;15.40;100111.00;;;;5109851;28;20092;-78
2021/10/13 08:21:17;;;;;;;15.05;9.77;;;;;15.30;100134.00;;;;5109494;28;20047;-78
2021/10/13 08:23:46;;;;;;;16.98;10.32;;;;;15.40;100119.00;;;;5109207;28;20050;-78
2021/10/13 08:26:16;;;;;;;20.45;11.15;;;;;15.40;100119.00;;;;5108963;28;20117;-78
2021/10/13 08:28:45;;;;;;;18.67;10.80;;;;;15.40;100108.00;;;;5109508;28;20050;-78
2021/10/13 08:31:14;;;;;;;16.08;11.10;;;;;15.50;100137.00;;;;5109339;28;20121;-78
2021/10/13 08:33:44;;;;;;;17.55;10.65;;;;;15.40;100134.00;;;;5091477;28;20089;-78
2021/10/13 08:36:13;;;;;;;17.75;10.25;;;;;15.40;100121.00;;;;5109317;28;20079;-78
2021/10/13 08:38:43;;;;;;;21.02;10.77;;;;;15.40;100145.00;;;;5109541;28;20066;-78
2021/10/13 08:41:12;;;;;;;20.90;10.75;;;;;15.30;100120.00;;;;5109728;28;20047;-78
2021/10/13 08:43:45;;;;;;;13.43;10.23;;;;;15.30;100134.00;;;;5108735;28;20047;-78
2021/10/13 08:46:16;;;;;;;19.15;10.57;;;;;15.30;100117.00;;;;5109386;28;20043;-78
2021/10/13 08:48:45;;;;;;;15.10;11.02;;;;;15.30;100089.00;;;;5108823;28;20053;-78
2021/10/13 08:51:15;;;;;;;14.93;9.55;;;;;15.20;100117.00;;;;5108654;28;20574;-78
2021/10/13 08:53:44;;;;;;;15.73;10.23;;;;;15.20;100120.00;;;;5108988;28;20047;-78
2021/10/13 08:56:14;;;;;;;14.13;10.85;;;;;15.20;100131.00;;;;5091063;28;20082;-78
2021/10/13 08:58:43;;;;;;;15.75;10.40;;;;;15.30;100137.00;;;;5090944;28;20433;-77
2021/10/13 09:01:14;;;;;;;13.18;11.13;;;;;15.40;100137.00;;;;5109107;28;20109;-78
2021/10/13 09:03:45;;;;;;;;;;;;;15.40;100146.00;;;;5109368;28;20093;-77
2021/10/13 09:06:30;;;;;;;11.18;9.85;;;;;15.50;100149.00;;;;5091073;28;19920;-78
2021/10/13 09:09:11;;;;;;;21.48;11.57;;;;;15.50;100120.00;;;;5109306;28;20044;-77
2021/10/13 09:11:46;;;;;;;19.45;10.38;;;;;15.60;100124.00;;;;5112972;28;20469;-77
2021/10/13 09:14:20;;;;;;;15.73;10.18;;;;;15.60;100133.00;;;;5094769;28;20047;-78
2021/10/13 09:17:09;;;;;;;14.70;9.70;;;;;15.70;100146.00;;;;5112714;28;20071;-79
2021/10/13 09:19:51;;;;;;;11.57;10.25;;;;;15.80;100153.00;;;;5093919;28;20429;-78
2021/10/13 09:22:20;;;;;;;;;;;;;15.90;100139.00;;;;5112583;28;20199;-78
2021/10/13 09:24:52;;;;;;;23.13;9.45;;;;;16.10;100151.00;;;;5110006;28;20642;-78
2021/10/13 09:27:30;;;;;;;13.15;9.50;;;;;16.30;100121.00;;;;5108966;28;20051;-78
2021/10/13 09:30:07;;;;;;;13.77;10.40;;;;;16.40;100141.00;;;;5090640;28;20039;-78
2021/10/13 09:32:45;;;;;;;14.40;8.45;;;;;16.50;100131.00;;;;5108169;28;20047;-77
2021/10/13 09:35:14;;;;;;;17.75;9.48;;;;;16.60;100134.00;;;;5089903;28;20433;-78
2021/10/13 09:37:47;;;;;;;14.60;9.32;;;;;16.70;100109.00;;;;5108060;28;20856;-78
2021/10/13 09:40:28;;;;;;;13.07;9.05;;;;;16.90;100122.00;;;;5089490;28;20075;-78
2021/10/13 09:42:58;;;;;;;9.82;8.68;;;;;17.00;100122.00;;;;5108203;28;20047;-78
2021/10/13 09:45:30;;;;;;;15.18;9.05;;;;;17.20;100137.00;;;;5107150;28;20166;-78
2021/10/13 09:48:04;;;;;;;15.98;8.55;;;;;17.30;100136.00;;;;5108014;28;20055;-77
2021/10/13 09:50:43;;;;;;;15.23;7.30;;;;;17.40;100147.00;;;;5108920;28;20046;-77
2021/10/13 09:53:30;;;;;;;19.17;6.97;;;;;17.60;100164.00;;;;5090505;28;20039;-78
2021/10/13 09:56:00;;;;;;;12.50;7.65;;;;;17.80;100131.00;;;;5108456;28;20154;-78
2021/10/13 09:58:34;;;;;;;13.45;7.47;;;;;18.00;100154.00;;;;5107819;28;20525;-78
2021/10/13 10:01:16;;;;;;;12.73;6.72;;;;;18.60;100141.00;;;;5108441;28;20134;-78
2021/10/13 10:03:47;;;;;;;14.20;5.95;;;;;19.00;100101.00;;;;5107502;28;20036;-78
2021/10/13 10:06:18;;;;;;;11.88;6.05;;;;;19.40;100080.00;;;;5107617;28;20043;-78
2021/10/13 10:08:56;;;;;;;11.67;4.80;;;;;19.90;100106.00;;;;5107461;28;20104;-77
2021/10/13 10:11:30;;;;;;;7.07;4.50;;;;;20.00;100146.00;;;;5107976;28;20502;-78
2021/10/13 10:14:05;;;;;;;6.85;4.35;;;;;19.50;100167.00;;;;5108044;28;20074;-78
2021/10/13 10:16:38;;;;;;;20.70;5.97;;;;;19.40;100163.00;;;;5106732;28;20054;-78
2021/10/13 10:19:22;;;;;;;26.30;5.85;;;;;19.90;100160.00;;;;5107719;28;20046;-78
2021/10/13 10:21:56;;;;;;;9.75;4.60;;;;;20.40;100170.00;;;;5107510;28;20055;-77
2021/10/13 10:24:33;;;;;;;10.75;4.80;;;;;20.70;100178.00;;;;5107167;28;20047;-78
2021/10/13 10:27:23;;;;;;;16.98;5.75;;;;;20.70;100188.00;;;;5107335;28;20051;-78
2021/10/13 10:30:08;;;;;;;7.35;4.32;;;;;21.30;100140.00;;;;5107616;28;20035;-78
2021/10/13 10:32:41;;;;;;;12.23;3.60;;;;;22.50;100088.00;;;;5107447;28;20043;-78
2021/10/13 10:35:16;;;;;;;8.98;3.00;;;;;23.10;100100.00;;;;5106978;28;20410;-78
2021/10/13 10:37:52;;;;;;;8.07;2.88;;;;;24.10;100047.00;;;;5106854;28;20093;-78
2021/10/13 10:40:32;;;;;;;14.80;3.08;;;;;26.00;100039.00;;;;5086256;28;20047;-79
2021/10/13 10:43:07;;;;;;;21.23;2.78;;;;;26.60;100057.00;;;;5087072;28;20051;-78
2021/10/13 10:45:40;;;;;;;10.18;2.30;;;;;26.60;100088.00;;;;5086492;28;20048;-78
2021/10/13 10:48:12;;;;;;;13.13;2.10;;;;;25.80;100085.00;;;;5105551;28;20517;-78
2021/10/13 10:51:04;;;;;;;7.65;2.33;;;;;25.20;100088.00;;;;5107406;28;20074;-78
2021/10/13 10:53:43;;;;;;;9.77;1.90;;;;;25.20;100110.00;;;;5107378;28;20039;-79
2021/10/13 10:56:31;;;;;;;9.82;1.95;;;;;25.20;100110.00;;;;5088756;28;20046;-78
2021/10/13 10:59:02;;;;;;;9.23;1.67;;;;;25.40;100128.00;;;;5089421;28;20051;-78
2021/10/13 11:01:34;;;;;;;8.07;1.80;;;;;25.20;100126.00;;;;5108994;28;20051;-78
2021/10/13 11:04:10;;;;;;;11.55;1.67;;;;;25.00;100158.00;;;;5116300;28;20129;-78
2021/10/13 11:06:45;;;;;;;13.10;2.90;;;;;24.20;100157.00;;;;5110739;28;20044;-78
2021/10/13 11:09:14;;;;;;;20.58;2.47;;;;;24.80;100135.00;;;;5107014;28;20043;-78
2021/10/13 11:11:47;;;;;;;9.90;1.20;;;;;25.40;100112.00;;;;5088010;28;20047;-78
2021/10/13 11:14:23;;;;;;;15.57;3.20;;;;;25.80;100102.00;;;;5106457;28;20047;-79
2021/10/13 11:16:57;;;;;;;8.23;1.90;;;;;26.70;100108.00;;;;5105852;28;20047;-79
2021/10/13 11:19:35;;;;;;;9.73;1.40;;;;;27.90;100064.00;;;;5106587;28;20405;-78
2021/10/13 11:22:11;;;;;;;8.48;1.30;;;;;28.70;100051.00;;;;5106059;28;20119;-78
2021/10/13 11:24:47;;;;;;;8.55;1.52;;;;;28.70;100090.00;;;;5107133;28;20496;-79
2021/10/13 11:27:24;;;;;;;7.13;1.50;;;;;28.80;100094.00;;;;5104949;28;20043;-78
2021/10/13 11:29:53;;;;;;;10.88;1.42;;;;;27.60;100098.00;;;;5106554;28;20169;-78
2021/10/13 11:32:23;;;;;;;3.40;1.38;;;;;28.40;100094.00;;;;5106429;28;20043;-78
2021/10/13 11:34:59;;;;;;;10.18;1.33;;;;;28.10;100120.00;;;;5106136;28;20048;-79
2021/10/13 11:37:30;;;;;;;4.00;1.52;;;;;26.90;100179.00;;;;5108662;28;20044;-78
2021/10/13 11:39:59;;;;;;;7.65;1.60;;;;;26.10;100195.00;;;;5110145;28;20043;-79
2021/10/13 11:42:31;;;;;;;4.38;1.38;;;;;26.60;100228.00;;;;5104921;28;20052;-80
2021/10/13 11:45:01;;;;;;;3.83;1.30;;;;;26.60;100212.00;;;;5097734;28;20039;-78
2021/10/13 11:47:35;;;;;;;5.47;1.77;;;;;26.40;100207.00;;;;5090442;28;20075;-78
2021/10/13 11:50:10;;;;;;;13.15;2.25;;;;;24.90;100209.00;;;;5089398;28;20050;-78
2021/10/13 11:52:41;;;;;;;5.65;1.67;;;;;25.50;100190.00;;;;5089574;28;20117;-78
2021/10/13 11:55:14;;;;;;;2.75;1.40;;;;;27.50;100096.00;;;;5090131;28;20044;-78
2021/10/13 11:57:56;;;;;;;3.72;1.70;;;;;29.50;100147.00;;;;5089524;28;20134;-78
2021/10/13 12:00:32;;;;;;;3.90;1.58;;;;;28.60;100142.00;;;;5089985;28;20093;-76
2021/10/13 12:03:10;;;;;;;9.48;1.58;;;;;27.30;100201.00;;;;5087477;28;20468;-77
2021/10/13 12:05:46;;;;;;;3.35;1.52;;;;;28.50;100139.00;;;;5089626;28;20105;-77
2021/10/13 12:08:17;;;;;;;4.45;1.40;;;;;28.90;100133.00;;;;5089940;28;20531;-77
2021/10/13 12:10:49;;;;;;;6.88;1.42;;;;;27.50;100174.00;;;;5089908;28;20115;-76
2021/10/13 12:13:29;;;;;;;7.82;1.30;;;;;26.40;100138.00;;;;5088197;28;20047;-78
2021/10/13 12:16:24;;;;;;;6.72;1.10;;;;;27.50;100238.00;;;;5089198;28;20039;-77
2021/10/13 12:18:55;;;;;;;4.03;1.13;;;;;28.00;100148.00;;;;5089235;28;20556;-76
2021/10/13 12:21:30;;;;;;;4.43;1.17;;;;;27.40;100133.00;;;;5070504;28;20598;-78
2021/10/13 12:24:07;;;;;;;2.58;0.98;;;;;28.00;100126.00;;;;5089305;28;20054;-76
2021/10/13 12:26:43;;;;;;;2.63;1.20;;;;;28.70;100120.00;;;;5093937;28;20053;-77
2021/10/13 12:29:18;;;;;;;5.07;1.20;;;;;28.80;100193.00;;;;5094610;28;20048;-77
2021/10/13 12:31:48;;;;;;;11.15;1.58;;;;;27.70;100191.00;;;;5108945;28;20039;-78
2021/10/13 12:34:19;;;;;;;4.03;1.05;;;;;27.70;100108.00;;;;5109108;28;20035;-78
2021/10/13 12:36:54;;;;;;;1.67;0.90;;;;;27.60;100117.00;;;;5090933;28;20101;-77
2021/10/13 12:39:28;;;;;;;10.43;2.28;;;;;27.50;100130.00;;;;5109636;28;20709;-77
2021/10/13 12:42:03;;;;;;;8.70;1.02;;;;;27.40;100112.00;;;;5109749;28;20077;-78
2021/10/13 12:44:34;;;;;;;11.10;1.83;;;;;27.50;100123.00;;;;5108446;28;20047;-79
2021/10/13 12:47:06;;;;;;;11.52;3.20;;;;;27.60;100120.00;;;;5109477;28;20066;-79
2021/10/13 12:49:38;;;;;;;5.22;1.63;;;;;27.50;100113.00;;;;5109279;28;20043;-79
2021/10/13 12:52:27;;;;;;;1.73;1.00;;;;;27.70;100113.00;;;;5091697;28;20054;-77
2021/10/13 12:54:57;;;;;;;4.38;1.17;;;;;27.70;100131.00;;;;5110313;28;20081;-78
2021/10/13 12:57:29;;;;;;;23.50;2.67;;;;;27.90;100120.00;;;;5110137;28;20410;-77
2021/10/13 12:59:59;;;;;;;3.75;1.40;;;;;27.70;100111.00;;;;5109616;28;20300;-78